Time;durP1;ratioP1;P1;durP2;ratioP2;P2;SDS_P1;SDS_P2;PMS_P1;PMS_P2;Temp;Humidity;BMP_temperature;BMP_pressure;BME280_temperature;BME280_humidity;BME280_pressure;Samples;Min_cycle;Max_cycle;Signal;HPM_P1;HPM_P2
2021/06/04 00:01:53;;;;;;;4.80;3.63;;;15.90;99.90;;;;;;4967694;28;20300;-83
2021/06/04 00:04:20;;;;;;;5.57;3.40;;;15.90;99.90;;;;;;4967871;28;20316;-82
2021/06/04 00:06:46;;;;;;;5.50;3.50;;;15.90;99.90;;;;;;4966309;28;20290;-84
2021/06/04 00:09:15;;;;;;;8.70;3.40;;;15.90;99.90;;;;;;4969387;28;20201;-83
2021/06/04 00:11:45;;;;;;;7.43;4.10;;;15.90;99.90;;;;;;4967434;28;20280;-82
2021/06/04 00:14:15;;;;;;;6.73;3.80;;;15.90;99.90;;;;;;4966861;28;20805;-82
2021/06/04 00:16:45;;;;;;;7.10;3.77;;;15.90;99.90;;;;;;4966602;28;20209;-82
2021/06/04 00:19:15;;;;;;;9.50;3.80;;;15.90;99.90;;;;;;4961173;28;20702;-84
2021/06/04 00:21:44;;;;;;;6.67;3.80;;;15.90;99.90;;;;;;4970855;28;20858;-82
2021/06/04 00:24:13;;;;;;;6.13;3.90;;;15.90;99.90;;;;;;4973033;28;20292;-82
2021/06/04 00:26:41;;;;;;;6.37;3.80;;;15.90;99.90;;;;;;4967045;28;20236;-83
2021/06/04 00:29:08;;;;;;;10.77;3.70;;;16.00;99.90;;;;;;4967512;28;20202;-84
2021/06/04 00:31:36;;;;;;;4.37;3.50;;;15.90;99.90;;;;;;4975054;28;20217;-84
2021/06/04 00:34:05;;;;;;;7.27;4.13;;;15.90;99.90;;;;;;4975321;28;20244;-83
2021/06/04 00:36:31;;;;;;;5.87;3.70;;;15.90;99.90;;;;;;4968469;28;20221;-84
2021/06/04 00:39:00;;;;;;;4.93;3.70;;;15.80;99.90;;;;;;4969727;28;20206;-86
2021/06/04 00:41:29;;;;;;;8.13;3.60;;;15.80;99.90;;;;;;4970283;28;20693;-83
2021/06/04 00:43:56;;;;;;;6.70;3.83;;;15.80;99.90;;;;;;4971896;28;20257;-83
2021/06/04 00:46:25;;;;;;;6.40;3.83;;;15.80;99.90;;;;;;4970830;28;20257;-83
2021/06/04 00:48:51;;;;;;;9.27;4.00;;;15.80;99.90;;;;;;4970449;28;20221;-84
2021/06/04 00:51:23;;;;;;;7.13;3.80;;;15.80;99.90;;;;;;4964112;28;20209;-83
2021/06/04 00:53:51;;;;;;;5.50;3.63;;;15.80;99.90;;;;;;4969080;28;20221;-84
2021/06/04 00:56:19;;;;;;;4.67;3.90;;;15.90;99.90;;;;;;4966905;28;20344;-83
2021/06/04 00:58:47;;;;;;;7.30;4.10;;;15.90;99.90;;;;;;4965604;28;20222;-84
2021/06/04 01:01:17;;;;;;;5.97;3.87;;;15.80;99.90;;;;;;4969209;28;21974;-84
2021/06/04 01:03:47;;;;;;;6.20;4.20;;;15.90;99.90;;;;;;4968027;28;20747;-82
2021/06/04 01:06:25;;;;;;;6.57;4.30;;;15.90;99.90;;;;;;4968208;28;20309;-83
2021/06/04 01:09:02;;;;;;;7.83;4.90;;;15.90;99.90;;;;;;4965614;28;20244;-82
2021/06/04 01:11:44;;;;;;;8.27;4.70;;;15.90;99.90;;;;;;4967561;28;20315;-82
2021/06/04 01:14:18;;;;;;;8.77;4.50;;;16.00;99.90;;;;;;4964329;28;20296;-83
2021/06/04 01:16:57;;;;;;;10.33;4.17;;;15.90;99.90;;;;;;4968769;28;20205;-83
2021/06/04 01:19:51;;;;;;;6.77;4.20;;;15.90;99.90;;;;;;4968223;28;20248;-84
2021/06/04 01:22:28;;;;;;;7.90;4.77;;;15.90;99.90;;;;;;4967278;28;20553;-83
2021/06/04 01:25:21;;;;;;;11.00;4.27;;;15.80;99.90;;;;;;4971492;28;21030;-83
2021/06/04 01:27:51;;;;;;;6.67;4.20;;;15.80;99.90;;;;;;4968979;28;20663;-83
2021/06/04 01:30:24;;;;;;;8.43;4.00;;;15.80;99.90;;;;;;4983219;28;20181;-86
2021/06/04 01:32:54;;;;;;;6.63;4.27;;;15.70;99.90;;;;;;4991020;28;20210;-85
2021/06/04 01:35:25;;;;;;;7.47;4.27;;;15.60;99.90;;;;;;4992630;28;20190;-81
2021/06/04 01:37:53;;;;;;;6.90;3.80;;;15.60;99.90;;;;;;4971468;28;20316;-82
2021/06/04 01:40:26;;;;;;;7.30;4.23;;;15.60;99.90;;;;;;4966236;28;20217;-83
2021/06/04 01:42:55;;;;;;;7.00;4.00;;;15.60;99.90;;;;;;4971211;28;20234;-81
2021/06/04 01:45:26;;;;;;;5.20;3.63;;;15.60;99.90;;;;;;4970067;28;20245;-82
2021/06/04 01:47:59;;;;;;;9.50;4.40;;;15.50;99.90;;;;;;4969616;28;20230;-82
2021/06/04 01:50:29;;;;;;;5.03;3.83;;;15.50;99.90;;;;;;4969650;28;20242;-82
2021/06/04 01:52:59;;;;;;;5.43;3.80;;;15.50;99.90;;;;;;4966568;28;20246;-83
2021/06/04 01:55:29;;;;;;;6.47;4.60;;;15.60;99.90;;;;;;4967912;28;20212;-84
2021/06/04 01:58:00;;;;;;;4.90;3.97;;;15.60;99.90;;;;;;4969172;28;20285;-84
2021/06/04 02:00:30;;;;;;;10.93;5.10;;;15.60;99.90;;;;;;4967966;28;20210;-81
2021/06/04 02:02:57;;;;;;;14.13;5.60;;;15.60;99.90;;;;;;4969334;28;20297;-83
2021/06/04 02:05:28;;;;;;;8.17;4.43;;;15.60;99.90;;;;;;4967170;28;20618;-83
2021/06/04 02:07:55;;;;;;;6.80;4.23;;;15.50;99.90;;;;;;4969533;28;20205;-82
2021/06/04 02:10:28;;;;;;;7.03;4.60;;;15.50;99.90;;;;;;4967621;28;20329;-82
2021/06/04 02:12:56;;;;;;;6.43;4.27;;;15.50;99.90;;;;;;4969406;28;20265;-82
2021/06/04 02:15:28;;;;;;;6.50;4.00;;;15.40;99.90;;;;;;4970946;28;20209;-81
2021/06/04 02:18:02;;;;;;;6.40;4.40;;;15.40;99.90;;;;;;4968526;28;20214;-82
2021/06/04 02:20:33;;;;;;;6.10;3.80;;;15.40;99.90;;;;;;4973095;28;20208;-83
2021/06/04 02:23:11;;;;;;;7.17;4.50;;;15.40;99.90;;;;;;4973456;28;20233;-82
2021/06/04 02:25:53;;;;;;;8.83;4.13;;;15.40;99.90;;;;;;4972123;28;20225;-83
2021/06/04 02:28:26;;;;;;;6.93;4.30;;;15.40;99.90;;;;;;4969288;28;20225;-84
2021/06/04 02:30:59;;;;;;;5.37;4.40;;;15.40;99.90;;;;;;4965571;28;20686;-84
2021/06/04 02:33:32;;;;;;;5.03;3.80;;;15.40;99.90;;;;;;4966542;28;20658;-81
2021/06/04 02:36:03;;;;;;;5.57;4.10;;;15.40;99.90;;;;;;4968688;28;20197;-82
2021/06/04 02:38:32;;;;;;;7.83;4.30;;;15.30;99.90;;;;;;4965955;28;20252;-83
2021/06/04 02:41:01;;;;;;;6.70;4.00;;;15.30;99.90;;;;;;4967528;28;20929;-84
2021/06/04 02:43:35;;;;;;;5.07;4.07;;;15.30;99.90;;;;;;4969446;28;20232;-83
2021/06/04 02:46:06;;;;;;;7.53;3.80;;;15.30;99.90;;;;;;4967339;28;20770;-83
2021/06/04 02:48:33;;;;;;;14.17;5.97;;;15.30;99.90;;;;;;4968399;28;20283;-82
2021/06/04 02:51:08;;;;;;;12.60;5.47;;;15.30;99.90;;;;;;4966917;28;20278;-83
2021/06/04 02:53:38;;;;;;;7.30;4.10;;;15.20;99.90;;;;;;4972532;28;20240;-84
2021/06/04 02:56:17;;;;;;;5.63;4.33;;;15.20;99.90;;;;;;4970571;28;20552;-84
2021/06/04 02:58:48;;;;;;;7.93;4.80;;;15.20;99.90;;;;;;4968760;28;20295;-83
2021/06/04 03:01:16;;;;;;;9.60;4.80;;;15.20;99.90;;;;;;4972300;28;20206;-83
2021/06/04 03:03:47;;;;;;;6.67;4.50;;;15.20;99.90;;;;;;4968176;28;20230;-85
2021/06/04 03:06:14;;;;;;;14.23;6.93;;;15.20;99.90;;;;;;4970076;28;20257;-83
2021/06/04 03:08:41;;;;;;;20.40;10.00;;;15.20;99.90;;;;;;4969801;28;20205;-84
2021/06/04 03:11:10;;;;;;;21.43;8.10;;;15.10;99.90;;;;;;4989658;28;20202;-87
2021/06/04 03:13:36;;;;;;;13.20;6.33;;;15.10;99.90;;;;;;4991895;28;20237;-83
2021/06/04 03:16:07;;;;;;;8.63;4.97;;;15.10;99.90;;;;;;4987898;28;20240;-83
2021/06/04 03:18:36;;;;;;;10.37;5.00;;;15.10;99.90;;;;;;4973250;28;20789;-84
2021/06/04 03:21:06;;;;;;;10.70;5.33;;;15.10;99.90;;;;;;4969851;28;20202;-84
2021/06/04 03:23:36;;;;;;;8.53;5.50;;;15.10;99.90;;;;;;4972295;28;20245;-84
2021/06/04 03:26:09;;;;;;;11.30;5.77;;;15.10;99.90;;;;;;4969996;28;20236;-85
2021/06/04 03:28:37;;;;;;;12.33;4.70;;;15.10;99.90;;;;;;4967932;28;20697;-83
2021/06/04 03:31:08;;;;;;;6.40;4.73;;;15.00;99.90;;;;;;4970842;28;20214;-82
2021/06/04 03:33:36;;;;;;;8.30;5.10;;;14.90;99.90;;;;;;4965969;28;20685;-84
2021/06/04 03:36:08;;;;;;;7.00;4.47;;;14.90;99.90;;;;;;4966544;28;20197;-84
2021/06/04 03:38:35;;;;;;;8.80;4.77;;;14.90;99.90;;;;;;4964632;28;20285;-82
2021/06/04 03:41:03;;;;;;;6.30;4.50;;;14.90;99.90;;;;;;4964867;28;20256;-83
2021/06/04 03:43:34;;;;;;;8.33;4.50;;;14.90;99.90;;;;;;4967203;28;20364;-85
2021/06/04 03:46:00;;;;;;;8.57;4.47;;;14.90;99.90;;;;;;4965447;28;20229;-84
2021/06/04 03:48:32;;;;;;;9.07;4.33;;;14.90;99.90;;;;;;4963567;28;20217;-84
2021/06/04 03:51:01;;;;;;;10.83;5.13;;;14.80;99.90;;;;;;4965894;28;20213;-84
2021/06/04 03:53:28;;;;;;;7.17;4.63;;;14.90;99.90;;;;;;4965950;28;20295;-84
2021/06/04 03:55:55;;;;;;;5.80;4.40;;;14.90;99.90;;;;;;4964996;28;20226;-84
2021/06/04 03:58:22;;;;;;;9.30;5.10;;;14.90;99.90;;;;;;4966543;28;20686;-85
2021/06/04 04:00:51;;;;;;;5.37;4.00;;;15.00;99.90;;;;;;4964440;28;20284;-84
2021/06/04 04:03:21;;;;;;;8.83;4.73;;;15.00;99.90;;;;;;4965533;28;20264;-84
2021/06/04 04:05:51;;;;;;;17.93;8.10;;;15.10;99.90;;;;;;4966745;28;20381;-85
2021/06/04 04:08:20;;;;;;;12.90;7.07;;;15.00;99.90;;;;;;4966431;28;20251;-84
2021/06/04 04:10:47;;;;;;;9.83;6.03;;;15.10;99.90;;;;;;4967517;28;20608;-85
2021/06/04 04:13:16;;;;;;;14.53;6.40;;;15.10;99.90;;;;;;4968696;28;20229;-86
2021/06/04 04:15:43;;;;;;;11.67;6.03;;;15.20;99.90;;;;;;4964407;28;20297;-84
2021/06/04 04:18:10;;;;;;;7.50;4.73;;;15.30;99.90;;;;;;4963693;28;20237;-83
2021/06/04 04:20:38;;;;;;;7.27;4.77;;;15.40;99.90;;;;;;4965387;28;20300;-84
2021/06/04 04:23:08;;;;;;;8.93;5.03;;;15.50;99.90;;;;;;4964541;28;20300;-85
2021/06/04 04:25:39;;;;;;;5.93;4.20;;;15.60;99.90;;;;;;4959617;28;20976;-85
2021/06/04 04:28:10;;;;;;;8.27;4.80;;;15.70;99.90;;;;;;4961048;28;20221;-84
2021/06/04 04:30:36;;;;;;;14.20;5.30;;;15.80;99.90;;;;;;4960922;28;21007;-86
2021/06/04 04:33:09;;;;;;;13.43;5.50;;;15.80;99.90;;;;;;4966028;28;20237;-82
2021/06/04 04:35:37;;;;;;;8.10;4.50;;;15.80;99.90;;;;;;4963348;28;20314;-83
2021/06/04 04:38:17;;;;;;;6.47;4.00;;;15.80;99.90;;;;;;4964799;28;20237;-83
2021/06/04 04:40:44;;;;;;;5.00;3.80;;;15.70;99.90;;;;;;4965280;28;20288;-85
2021/06/04 04:43:10;;;;;;;7.93;4.50;;;15.70;99.90;;;;;;4965767;28;20229;-86
2021/06/04 04:45:38;;;;;;;11.10;4.60;;;15.80;99.90;;;;;;4964948;28;20210;-85
2021/06/04 04:48:06;;;;;;;8.20;4.10;;;15.90;99.90;;;;;;4969577;28;20253;-87
2021/06/04 04:50:33;;;;;;;7.90;4.53;;;16.00;99.90;;;;;;4986098;28;20186;-86
2021/06/04 04:53:00;;;;;;;6.93;4.30;;;16.00;99.90;;;;;;4991838;28;20201;-84
2021/06/04 04:55:30;;;;;;;9.13;4.80;;;16.10;99.90;;;;;;4983544;28;20214;-83
2021/06/04 04:57:57;;;;;;;6.03;4.77;;;16.10;99.90;;;;;;4968031;28;20206;-83
2021/06/04 05:00:26;;;;;;;5.57;4.67;;;16.20;99.90;;;;;;4965308;28;20223;-83
2021/06/04 05:02:53;;;;;;;9.93;4.73;;;16.30;99.90;;;;;;4965766;28;20236;-83
2021/06/04 05:05:21;;;;;;;7.93;4.43;;;16.40;99.90;;;;;;4964928;28;20209;-82
2021/06/04 05:07:48;;;;;;;10.80;4.80;;;16.40;99.90;;;;;;4969769;28;20316;-83
2021/06/04 05:10:14;;;;;;;5.33;4.70;;;16.50;99.90;;;;;;4967254;28;20612;-83
2021/06/04 05:12:42;;;;;;;6.20;4.47;;;16.70;99.90;;;;;;4968643;28;20234;-84
2021/06/04 05:15:14;;;;;;;6.43;4.90;;;16.70;99.90;;;;;;4966963;28;22066;-82
2021/06/04 05:17:41;;;;;;;6.90;4.60;;;16.70;99.90;;;;;;4969322;28;20230;-84
2021/06/04 05:20:09;;;;;;;8.37;4.43;;;16.80;99.90;;;;;;4967177;28;20208;-84
2021/06/04 05:22:35;;;;;;;7.13;4.50;;;17.00;99.90;;;;;;4967228;28;20206;-84
2021/06/04 05:25:03;;;;;;;11.00;4.60;;;17.10;99.90;;;;;;4968171;28;20212;-83
2021/06/04 05:27:29;;;;;;;7.43;4.13;;;17.10;99.90;;;;;;4967505;28;20221;-86
2021/06/04 05:29:57;;;;;;;7.03;4.30;;;17.20;99.90;;;;;;4966398;28;20236;-83
2021/06/04 05:32:24;;;;;;;8.73;4.87;;;17.20;99.90;;;;;;4965481;28;20214;-83
2021/06/04 05:34:50;;;;;;;7.50;4.53;;;17.20;99.90;;;;;;4964970;28;20744;-84
2021/06/04 05:37:17;;;;;;;5.83;4.73;;;17.30;99.90;;;;;;4966043;28;20604;-83
2021/06/04 05:39:43;;;;;;;8.43;4.50;;;17.30;99.90;;;;;;4965954;28;20239;-83
2021/06/04 05:42:10;;;;;;;7.90;4.60;;;17.40;99.90;;;;;;4969512;28;20201;-83
2021/06/04 05:44:38;;;;;;;10.90;4.50;;;17.50;99.90;;;;;;4967279;28;20582;-82
2021/06/04 05:47:09;;;;;;;8.27;4.87;;;17.50;99.90;;;;;;4969429;28;20655;-83
2021/06/04 05:49:36;;;;;;;5.83;4.77;;;17.60;99.90;;;;;;4967514;28;20249;-84
2021/06/04 05:52:08;;;;;;;8.57;5.00;;;17.70;99.90;;;;;;4969695;28;20277;-82
2021/06/04 05:54:36;;;;;;;11.00;4.67;;;17.80;99.90;;;;;;4967790;28;20707;-84
2021/06/04 05:57:04;;;;;;;10.53;4.90;;;18.00;99.90;;;;;;4968721;28;20210;-82
2021/06/04 05:59:30;;;;;;;6.50;4.77;;;18.10;99.90;;;;;;4967226;28;20268;-84
2021/06/04 06:01:57;;;;;;;9.03;5.03;;;18.30;99.90;;;;;;4965000;28;20222;-83
2021/06/04 06:04:26;;;;;;;8.60;4.30;;;18.30;99.90;;;;;;4964848;28;20265;-83
2021/06/04 06:06:53;;;;;;;9.27;4.67;;;18.20;99.90;;;;;;4967630;28;20970;-85
2021/06/04 06:09:20;;;;;;;5.47;4.40;;;18.20;99.90;;;;;;4969000;28;20292;-82
2021/06/04 06:11:47;;;;;;;6.77;4.50;;;18.40;99.90;;;;;;4965946;28;20213;-82
2021/06/04 06:14:17;;;;;;;7.20;4.63;;;18.50;99.90;;;;;;4974447;28;20217;-85
2021/06/04 06:16:44;;;;;;;7.67;4.80;;;18.70;99.90;;;;;;4975046;28;20293;-85
2021/06/04 06:19:13;;;;;;;6.80;4.27;;;19.00;99.90;;;;;;4969896;28;20682;-83
2021/06/04 06:21:43;;;;;;;5.07;3.73;;;19.50;99.90;;;;;;4975380;28;20276;-85
2021/06/04 06:24:10;;;;;;;8.23;4.20;;;19.70;99.90;;;;;;4972877;28;20820;-85
2021/06/04 06:26:37;;;;;;;6.27;3.97;;;20.20;99.90;;;;;;4973228;28;20221;-85
2021/06/04 06:29:06;;;;;;;4.90;3.90;;;20.80;99.90;;;;;;4984095;28;20190;-82
2021/06/04 06:31:36;;;;;;;8.53;4.00;;;21.40;99.90;;;;;;4993859;28;20201;-81
2021/06/04 06:34:04;;;;;;;6.73;3.80;;;21.70;99.90;;;;;;4995164;28;20205;-81
2021/06/04 06:36:33;;;;;;;6.53;3.93;;;22.10;99.90;;;;;;4970962;28;20202;-85
2021/06/04 06:39:05;;;;;;;6.33;4.10;;;23.30;99.90;;;;;;4969662;28;20688;-85
2021/06/04 06:41:31;;;;;;;5.97;3.63;;;;;;;;;;4972901;28;20203;-83
2021/06/04 06:43:58;;;;;;;3.80;3.30;;;;;;;;;;4970962;28;20731;-84
2021/06/04 06:46:26;;;;;;;9.73;4.00;;;;;;;;;;4971365;28;20316;-84
2021/06/04 06:48:53;;;;;;;6.03;3.40;;;;;;;;;;4969275;28;20796;-85
2021/06/04 06:51:20;;;;;;;5.87;3.47;;;;;;;;;;4967794;28;20217;-84
2021/06/04 06:53:47;;;;;;;5.63;3.67;;;24.00;99.90;;;;;;4967773;28;20236;-83
2021/06/04 06:56:17;;;;;;;4.63;3.43;;;23.80;99.90;;;;;;4963029;28;20216;-85
2021/06/04 06:58:44;;;;;;;5.40;3.70;;;23.60;99.90;;;;;;4968917;28;20265;-82
2021/06/04 07:01:11;;;;;;;6.10;3.90;;;23.80;99.90;;;;;;4971107;28;20226;-83
2021/06/04 07:03:40;;;;;;;6.23;3.60;;;23.70;99.90;;;;;;4973504;28;20249;-85
2021/06/04 07:06:09;;;;;;;7.77;3.70;;;23.60;99.90;;;;;;4967808;28;20676;-83
2021/06/04 07:08:35;;;;;;;5.87;3.70;;;23.50;99.90;;;;;;4972527;28;20254;-85
2021/06/04 07:11:03;;;;;;;8.43;3.90;;;23.40;99.90;;;;;;4970909;28;20213;-83
2021/06/04 07:13:31;;;;;;;6.70;3.97;;;23.60;99.90;;;;;;4970216;28;20235;-83
2021/06/04 07:16:00;;;;;;;7.17;3.73;;;23.60;99.90;;;;;;4968332;28;20214;-85
2021/06/04 07:18:27;;;;;;;5.03;3.63;;;23.80;99.90;;;;;;4971148;28;20761;-85
2021/06/04 07:20:53;;;;;;;6.10;3.80;;;23.80;99.90;;;;;;4969530;28;20661;-86
2021/06/04 07:23:24;;;;;;;4.73;3.67;;;23.80;99.90;;;;;;4967684;28;20221;-83
2021/06/04 07:25:51;;;;;;;5.97;3.53;;;23.90;99.90;;;;;;4970309;28;20234;-85
2021/06/04 07:28:19;;;;;;;5.17;3.70;;;24.50;99.90;;;;;;4973481;28;20640;-84
2021/06/04 07:30:50;;;;;;;11.67;3.77;;;25.20;99.90;;;;;;4968022;28;20221;-86
2021/06/04 07:33:19;;;;;;;7.63;3.20;;;26.10;99.90;;;;;;4971806;28;20254;-86
2021/06/04 07:35:47;;;;;;;7.23;3.20;;;26.70;99.90;;;;;;4969354;28;20213;-86
2021/06/04 07:38:13;;;;;;;5.97;2.77;;;28.10;99.90;;;;;;4968261;28;20213;-85
2021/06/04 07:40:40;;;;;;;3.50;2.87;;;29.60;99.90;;;;;;4968327;28;20225;-83
2021/06/04 07:43:14;;;;;;;5.00;2.50;;;29.50;99.90;;;;;;4970979;28;20233;-83
2021/06/04 07:45:42;;;;;;;6.53;2.57;;;29.30;99.90;;;;;;4964896;28;20206;-83
2021/06/04 07:48:13;;;;;;;5.47;2.47;;;29.80;99.90;;;;;;4968324;28;20256;-81
2021/06/04 07:50:41;;;;;;;3.38;2.70;;;31.40;99.90;;;;;;4970916;28;20228;-83
2021/06/04 07:53:08;;;;;;;4.22;2.60;;;31.80;99.90;;;;;;4970090;28;20249;-83
2021/06/04 07:55:35;;;;;;;4.30;2.17;;;;;;;;;;4970471;28;20890;-84
2021/06/04 07:58:02;;;;;;;3.85;2.38;;;32.90;99.90;;;;;;4969278;28;20232;-82
2021/06/04 08:00:30;;;;;;;4.40;2.30;;;33.10;99.90;;;;;;4968080;28;20220;-82
2021/06/04 08:02:58;;;;;;;8.23;2.08;;;;;;;;;;4970875;28;20304;-84
2021/06/04 08:05:26;;;;;;;4.88;2.30;;;;;;;;;;4970923;28;20210;-83
2021/06/04 08:07:53;;;;;;;5.00;2.20;;;;;;;;;;4970904;28;20245;-83
2021/06/04 08:10:20;;;;;;;3.50;2.13;;;33.80;99.90;;;;;;4979701;28;20194;-81
2021/06/04 08:12:47;;;;;;;6.78;2.38;;;33.70;99.90;;;;;;4991955;28;20198;-81
2021/06/04 08:15:17;;;;;;;3.35;2.35;;;33.80;99.90;;;;;;4992452;28;20242;-81
2021/06/04 08:17:45;;;;;;;4.32;2.38;;;33.80;99.90;;;;;;4979039;28;20207;-83
2021/06/04 08:20:14;;;;;;;2.75;1.90;;;34.30;99.90;;;;;;4970448;28;20230;-83
2021/06/04 08:22:43;;;;;;;6.18;1.88;;;34.40;99.90;;;;;;4966973;28;20873;-84
2021/06/04 08:25:11;;;;;;;5.07;1.83;;;;;;;;;;4968320;28;20334;-83
2021/06/04 08:27:38;;;;;;;4.55;2.30;;;;;;;;;;4969512;28;20740;-82
2021/06/04 08:30:06;;;;;;;3.50;1.95;;;;;;;;;;4968131;28;20210;-82
2021/06/04 08:32:33;;;;;;;3.72;1.90;;;;;;;;;;4970758;28;20592;-83
2021/06/04 08:35:00;;;;;;;5.00;1.70;;;35.00;99.90;;;;;;4967629;28;20228;-83
2021/06/04 08:37:27;;;;;;;6.15;1.60;;;;;;;;;;4969737;28;20639;-84
2021/06/04 08:39:55;;;;;;;2.00;1.50;;;;;;;;;;4969751;28;20226;-83
2021/06/04 08:42:28;;;;;;;2.30;1.60;;;;;;;;;;4964976;28;20218;-82
2021/06/04 08:44:59;;;;;;;3.40;1.83;;;;;;;;;;4971504;28;20270;-83
2021/06/04 08:47:26;;;;;;;2.65;1.50;;;;;;;;;;4972739;28;20233;-82
2021/06/04 08:50:11;;;;;;;5.32;1.80;;;;;;;;;;4970112;28;20651;-83
2021/06/04 08:52:41;;;;;;;3.58;1.70;;;;;;;;;;4970872;28;20660;-83
2021/06/04 08:55:25;;;;;;;6.57;1.88;;;36.00;99.90;;;;;;4959584;28;20210;-83
2021/06/04 08:57:54;;;;;;;3.03;2.03;;;34.20;99.90;;;;;;4971776;28;20216;-83
2021/06/04 09:00:24;;;;;;;7.45;3.70;;;33.90;99.90;;;;;;4970521;28;20681;-83
2021/06/04 09:02:54;;;;;;;6.03;2.00;;;33.40;99.90;;;;;;4972632;28;20336;-83
2021/06/04 09:05:27;;;;;;;2.22;1.50;;;33.50;99.90;;;;;;4969432;28;20233;-83
2021/06/04 09:07:55;;;;;;;4.95;1.75;;;34.20;99.90;;;;;;4970188;28;20998;-84
2021/06/04 09:10:33;;;;;;;3.63;1.80;;;34.50;99.90;;;;;;4970498;28;20319;-82
2021/06/04 09:13:08;;;;;;;4.80;1.77;;;33.40;99.90;;;;;;4972318;28;20229;-82
2021/06/04 09:15:38;;;;;;;4.25;2.05;;;32.60;99.90;;;;;;4969347;28;21036;-83
2021/06/04 09:18:11;;;;;;;4.63;2.35;;;31.40;99.90;;;;;;4972621;28;20264;-82
2021/06/04 09:20:45;;;;;;;5.17;2.17;;;30.00;99.90;;;;;;4971077;28;20214;-82
2021/06/04 09:23:14;;;;;;;6.43;2.57;;;29.60;99.90;;;;;;4968247;28;20238;-83
2021/06/04 09:25:43;;;;;;;5.17;2.10;;;29.10;99.90;;;;;;4975634;28;20737;-84
2021/06/04 09:28:35;;;;;;;4.57;2.30;;;28.80;99.90;;;;;;4975227;28;20231;-83
2021/06/04 09:31:21;;;;;;;2.97;2.20;;;28.50;99.90;;;;;;4974441;28;20211;-83
2021/06/04 09:33:49;;;;;;;3.77;2.20;;;28.30;99.90;;;;;;4975059;28;20310;-82
2021/06/04 09:36:18;;;;;;;3.63;2.33;;;28.20;99.90;;;;;;4976907;28;20222;-83
2021/06/04 09:38:47;;;;;;;5.23;2.50;;;28.10;99.90;;;;;;4977872;28;20710;-84
2021/06/04 09:41:38;;;;;;;4.13;1.90;;;28.10;99.90;;;;;;4975940;28;20234;-84
2021/06/04 09:44:22;;;;;;;6.23;2.30;;;28.10;99.90;;;;;;4974970;28;20225;-83
2021/06/04 09:47:02;;;;;;;4.70;2.20;;;27.90;99.90;;;;;;4974137;28;20217;-84
2021/06/04 09:49:44;;;;;;;4.17;2.27;;;27.80;99.90;;;;;;4976283;28;20598;-84
2021/06/04 09:52:26;;;;;;;2.53;2.03;;;27.80;99.90;;;;;;4989917;28;20214;-80
2021/06/04 09:55:14;;;;;;;5.00;2.50;;;27.70;99.90;;;;;;4992827;28;20218;-80
2021/06/04 09:58:03;;;;;;;3.63;1.93;;;27.50;99.90;;;;;;4982154;28;20625;-83
2021/06/04 10:00:33;;;;;;;7.40;2.47;;;27.30;99.90;;;;;;4975620;28;20241;-82
2021/06/04 10:03:22;;;;;;;2.83;2.20;;;27.30;99.90;;;;;;4975522;28;20308;-83
2021/06/04 10:05:52;;;;;;;4.37;2.40;;;27.10;99.90;;;;;;4965489;28;20312;-84
2021/06/04 10:08:25;;;;;;;4.17;2.40;;;27.00;99.90;;;;;;4977511;28;20260;-82
2021/06/04 10:11:06;;;;;;;5.03;2.33;;;27.10;99.90;;;;;;4973008;28;20216;-84
2021/06/04 10:13:43;;;;;;;6.13;2.50;;;27.40;99.90;;;;;;4975590;28;20280;-82
2021/06/04 10:19:22;;;;;;;5.30;2.40;;;28.20;99.90;;;;;;4975277;28;20205;-84
2021/06/04 10:21:50;;;;;;;5.77;2.50;;;28.30;99.90;;;;;;4976130;28;20739;-83
2021/06/04 10:24:29;;;;;;;3.37;2.40;;;28.10;99.90;;;;;;4974674;28;20264;-84
2021/06/04 10:26:59;;;;;;;3.30;2.40;;;27.90;99.90;;;;;;4971889;28;20253;-83
2021/06/04 10:29:29;;;;;;;3.77;2.50;;;27.90;99.90;;;;;;4974780;28;20229;-84
2021/06/04 10:32:00;;;;;;;5.13;2.30;;;28.20;99.90;;;;;;4975096;28;20237;-84
2021/06/04 10:34:44;;;;;;;4.37;2.47;;;28.40;99.90;;;;;;4974349;28;20239;-84
2021/06/04 10:37:18;;;;;;;3.50;2.40;;;28.60;99.90;;;;;;4967986;28;20215;-84
2021/06/04 10:39:48;;;;;;;5.47;2.30;;;28.20;99.90;;;;;;4972747;28;20227;-84
2021/06/04 10:42:25;;;;;;;4.23;2.13;;;27.60;99.90;;;;;;4974741;28;20209;-83
2021/06/04 10:45:05;;;;;;;3.37;2.23;;;27.50;99.90;;;;;;4975950;28;20260;-83
2021/06/04 10:47:40;;;;;;;3.93;2.47;;;27.70;99.90;;;;;;4972397;28;20221;-83
2021/06/04 10:50:15;;;;;;;4.00;2.60;;;28.20;99.90;;;;;;4973839;28;20205;-84
2021/06/04 10:52:55;;;;;;;2.70;2.10;;;28.50;99.90;;;;;;4970756;28;20221;-84
2021/06/04 10:55:29;;;;;;;3.20;2.03;;;28.80;99.90;;;;;;4973137;28;20222;-83
2021/06/04 10:58:04;;;;;;;3.27;2.10;;;29.20;99.90;;;;;;4970828;28;20291;-84
2021/06/04 11:00:37;;;;;;;4.37;2.23;;;29.10;99.90;;;;;;4969143;28;20212;-83
2021/06/04 11:03:11;;;;;;;4.57;2.10;;;28.50;99.90;;;;;;4971837;28;20222;-82
2021/06/04 11:05:46;;;;;;;1.93;1.67;;;27.90;99.90;;;;;;4970839;28;20231;-84
2021/06/04 11:08:23;;;;;;;2.90;2.10;;;27.70;99.90;;;;;;4972700;28;20281;-82
2021/06/04 11:10:57;;;;;;;4.97;2.30;;;27.80;99.90;;;;;;4971275;28;20696;-85
2021/06/04 11:13:36;;;;;;;4.93;2.60;;;28.00;99.90;;;;;;4974108;28;20269;-84
2021/06/04 11:16:11;;;;;;;5.13;2.53;;;27.60;99.90;;;;;;4974933;28;20260;-84
2021/06/04 11:18:43;;;;;;;5.83;2.20;;;27.30;99.90;;;;;;4971910;28;20209;-81
2021/06/04 11:21:26;;;;;;;7.17;2.70;;;26.70;99.90;;;;;;4969568;28;20194;-82
2021/06/04 11:23:57;;;;;;;4.27;2.50;;;26.30;99.90;;;;;;4968361;28;20247;-83
2021/06/04 11:26:28;;;;;;;10.03;2.90;;;25.50;99.90;;;;;;4971827;28;20337;-85
2021/06/04 11:29:03;;;;;;;15.20;3.80;;;24.80;99.90;;;;;;4980419;28;20206;-81
2021/06/04 11:31:46;;;;;;;12.23;4.60;;;24.30;99.90;;;;;;4992831;28;20228;-80
2021/06/04 11:34:41;;;;;;;13.83;2.97;;;23.70;99.90;;;;;;5006850;28;20218;-80
2021/06/04 11:37:11;;;;;;;11.90;3.87;;;23.10;99.90;;;;;;4975033;28;20200;-84
2021/06/04 11:39:40;;;;;;;9.33;2.43;;;23.00;99.90;;;;;;4970435;28;20216;-83
2021/06/04 11:42:10;;;;;;;9.37;3.10;;;22.60;99.90;;;;;;4966525;28;20207;-84
2021/06/04 11:44:42;;;;;;;12.57;3.57;;;22.30;99.90;;;;;;4967902;28;20253;-83
2021/06/04 11:47:40;;;;;;;8.53;3.33;;;22.10;99.90;;;;;;4973115;28;20305;-83
2021/06/04 11:50:27;;;;;;;13.33;3.10;;;22.10;99.90;;;;;;4890785;29;20299;-83
2021/06/04 11:53:16;;;;;;;11.77;3.47;;;22.20;99.90;;;;;;4960494;28;20690;-82
2021/06/04 11:55:43;;;;;;;12.40;3.80;;;22.20;99.90;;;;;;4964827;28;20213;-82
2021/06/04 11:58:38;;;;;;;8.37;4.23;;;22.60;99.90;;;;;;4968795;28;20241;-82
2021/06/04 12:01:15;;;;;;;7.57;2.60;;;22.90;99.90;;;;;;4966255;28;20210;-83
2021/06/04 12:03:47;;;;;;;4.97;2.47;;;23.50;99.90;;;;;;4969677;28;20288;-83
2021/06/04 12:06:50;;;;;;;4.50;2.50;;;23.80;99.90;;;;;;4971009;28;20751;-84
2021/06/04 12:09:53;;;;;;;9.97;2.40;;;24.10;99.90;;;;;;4965497;28;20590;-83
2021/06/04 12:12:54;;;;;;;6.30;2.63;;;24.40;99.90;;;;;;4960687;28;20207;-81
2021/06/04 12:15:49;;;;;;;4.77;2.70;;;24.60;99.90;;;;;;4970195;28;20210;-82
2021/06/04 12:18:51;;;;;;;4.33;2.30;;;24.60;99.90;;;;;;4975556;28;20244;-85
2021/06/04 12:21:58;;;;;;;5.43;2.57;;;24.60;99.90;;;;;;4972189;28;20259;-84
2021/06/04 12:25:01;;;;;;;7.10;2.93;;;24.40;99.90;;;;;;4971619;28;20232;-83
2021/06/04 12:28:06;;;;;;;8.97;2.40;;;24.70;99.90;;;;;;4969172;28;20267;-83
2021/06/04 12:30:59;;;;;;;5.40;2.23;;;25.00;99.90;;;;;;4968469;28;20313;-82
2021/06/04 12:33:50;;;;;;;8.47;2.77;;;25.20;99.90;;;;;;4916650;28;20224;-83
2021/06/04 12:36:50;;;;;;;4.43;2.00;;;25.30;99.90;;;;;;4972428;28;21753;-82
2021/06/04 12:39:50;;;;;;;3.90;2.10;;;25.50;99.90;;;;;;4972730;28;20242;-84
2021/06/04 12:42:34;;;;;;;3.00;1.70;;;25.80;99.90;;;;;;4970418;28;20745;-84
2021/06/04 12:45:07;;;;;;;4.43;2.00;;;25.70;99.90;;;;;;4972315;28;20201;-84
2021/06/04 12:47:43;;;;;;;6.30;2.10;;;25.30;99.90;;;;;;4974964;28;20252;-83
2021/06/04 12:50:15;;;;;;;4.00;2.00;;;24.90;99.90;;;;;;4971319;28;20197;-82
2021/06/04 12:52:42;;;;;;;8.50;2.30;;;24.80;99.90;;;;;;4976206;28;20586;-83
2021/06/04 12:55:22;;;;;;;4.70;2.33;;;24.80;99.90;;;;;;4976917;28;20210;-84
2021/06/04 12:57:51;;;;;;;7.93;4.70;;;25.00;99.90;;;;;;4979210;28;20635;-84
2021/06/04 13:00:26;;;;;;;5.07;2.20;;;25.20;99.90;;;;;;4976257;28;20214;-84
2021/06/04 13:02:55;;;;;;;4.53;2.10;;;25.20;99.90;;;;;;4978841;28;20213;-84
2021/06/04 13:05:24;;;;;;;3.30;2.40;;;24.80;99.90;;;;;;4981231;28;20229;-80
2021/06/04 13:07:53;;;;;;;3.60;2.43;;;24.90;99.90;;;;;;4996979;28;20244;-81
2021/06/04 13:10:23;;;;;;;4.40;2.80;;;24.90;99.90;;;;;;4998681;28;20217;-80
2021/06/04 13:12:56;;;;;;;7.97;2.67;;;24.60;99.90;;;;;;4980373;28;20561;-84
2021/06/04 13:15:26;;;;;;;7.63;2.53;;;24.50;99.90;;;;;;4979513;28;20206;-84
2021/06/04 13:17:56;;;;;;;4.70;2.33;;;24.50;99.90;;;;;;4977526;28;20694;-82
2021/06/04 13:20:26;;;;;;;5.93;2.60;;;24.70;99.90;;;;;;4977084;28;20253;-83
2021/06/04 13:23:07;;;;;;;7.53;3.20;;;24.80;99.90;;;;;;4972929;28;20523;-83